sensor_id;sensor_type;location;lat;lon;timestamp;P1;P2;P0
67376;PMS7003;54261;46.086;6.588;2024-03-08T00:02:49;29.75;27.75;18.00
67376;PMS7003;54261;46.086;6.588;2024-03-08T00:07:54;29.25;23.50;17.00
67376;PMS7003;54261;46.086;6.588;2024-03-08T00:12:56;30.50;26.25;19.50
67376;PMS7003;54261;46.086;6.588;2024-03-08T00:17:59;14.00;14.00;10.00
67376;PMS7003;54261;46.086;6.588;2024-03-08T00:23:01;20.50;19.00;13.50
67376;PMS7003;54261;46.086;6.588;2024-03-08T00:28:03;11.50;10.00;6.75
67376;PMS7003;54261;46.086;6.588;2024-03-08T00:33:06;12.75;10.75;9.00
67376;PMS7003;54261;46.086;6.588;2024-03-08T00:38:08;15.25;13.50;9.00
67376;PMS7003;54261;46.086;6.588;2024-03-08T00:43:10;13.75;12.00;8.50
67376;PMS7003;54261;46.086;6.588;2024-03-08T00:48:12;24.00;22.25;16.00
67376;PMS7003;54261;46.086;6.588;2024-03-08T00:53:14;14.25;12.75;9.00
67376;PMS7003;54261;46.086;6.588;2024-03-08T00:58:15;20.75;17.50;12.75
67376;PMS7003;54261;46.086;6.588;2024-03-08T01:03:17;11.50;9.00;8.50
67376;PMS7003;54261;46.086;6.588;2024-03-08T01:08:19;9.00;8.50;5.25
67376;PMS7003;54261;46.086;6.588;2024-03-08T01:13:21;29.00;23.50;16.00
67376;PMS7003;54261;46.086;6.588;2024-03-08T01:18:23;31.25;29.50;19.75
67376;PMS7003;54261;46.086;6.588;2024-03-08T01:23:25;32.00;28.50;18.00
67376;PMS7003;54261;46.086;6.588;2024-03-08T01:28:27;32.25;29.25;20.75
67376;PMS7003;54261;46.086;6.588;2024-03-08T01:33:29;27.25;25.50;18.25
67376;PMS7003;54261;46.086;6.588;2024-03-08T01:38:31;32.25;29.50;19.00
67376;PMS7003;54261;46.086;6.588;2024-03-08T01:43:33;29.00;24.25;17.00
67376;PMS7003;54261;46.086;6.588;2024-03-08T01:48:35;26.50;24.50;17.50
67376;PMS7003;54261;46.086;6.588;2024-03-08T01:53:38;29.75;29.75;18.75
67376;PMS7003;54261;46.086;6.588;2024-03-08T01:58:41;26.50;25.50;16.00
67376;PMS7003;54261;46.086;6.588;2024-03-08T02:03:46;29.25;26.25;17.25
67376;PMS7003;54261;46.086;6.588;2024-03-08T02:08:48;23.75;21.00;14.75
67376;PMS7003;54261;46.086;6.588;2024-03-08T02:13:50;25.50;23.00;17.50
67376;PMS7003;54261;46.086;6.588;2024-03-08T02:18:52;28.50;26.25;15.50
67376;PMS7003;54261;46.086;6.588;2024-03-08T02:23:54;23.75;19.75;13.00
67376;PMS7003;54261;46.086;6.588;2024-03-08T02:28:56;26.25;26.25;18.25
67376;PMS7003;54261;46.086;6.588;2024-03-08T02:33:58;24.75;20.25;16.00
67376;PMS7003;54261;46.086;6.588;2024-03-08T02:39:04;24.75;20.75;15.25
67376;PMS7003;54261;46.086;6.588;2024-03-08T02:44:07;21.00;19.50;14.25
67376;PMS7003;54261;46.086;6.588;2024-03-08T02:49:09;20.75;19.00;13.75
67376;PMS7003;54261;46.086;6.588;2024-03-08T02:54:10;22.25;20.00;14.00
67376;PMS7003;54261;46.086;6.588;2024-03-08T02:59:12;27.00;25.25;17.00
67376;PMS7003;54261;46.086;6.588;2024-03-08T03:04:14;19.00;14.50;8.50
67376;PMS7003;54261;46.086;6.588;2024-03-08T03:09:16;4.00;4.00;2.00
67376;PMS7003;54261;46.086;6.588;2024-03-08T03:14:24;2.00;2.00;2.00
67376;PMS7003;54261;46.086;6.588;2024-03-08T03:19:28;8.75;6.25;5.50
67376;PMS7003;54261;46.086;6.588;2024-03-08T03:24:32;9.75;9.75;7.50
67376;PMS7003;54261;46.086;6.588;2024-03-08T03:29:34;15.75;13.75;9.00
67376;PMS7003;54261;46.086;6.588;2024-03-08T03:34:36;16.75;15.25;12.50
67376;PMS7003;54261;46.086;6.588;2024-03-08T03:39:38;18.50;18.00;11.75
67376;PMS7003;54261;46.086;6.588;2024-03-08T03:44:50;13.00;13.00;9.00
67376;PMS7003;54261;46.086;6.588;2024-03-08T03:49:54;13.00;12.00;8.25
67376;PMS7003;54261;46.086;6.588;2024-03-08T03:54:55;15.00;15.00;9.75
67376;PMS7003;54261;46.086;6.588;2024-03-08T03:59:58;20.00;15.00;12.00
67376;PMS7003;54261;46.086;6.588;2024-03-08T04:05:00;19.00;16.75;11.75
67376;PMS7003;54261;46.086;6.588;2024-03-08T04:10:02;21.25;19.75;14.00
67376;PMS7003;54261;46.086;6.588;2024-03-08T04:15:05;18.25;15.75;11.75
67376;PMS7003;54261;46.086;6.588;2024-03-08T04:20:13;23.25;20.50;12.50
67376;PMS7003;54261;46.086;6.588;2024-03-08T04:25:16;28.00;23.25;16.75
67376;PMS7003;54261;46.086;6.588;2024-03-08T04:30:18;29.25;27.25;17.25
67376;PMS7003;54261;46.086;6.588;2024-03-08T04:35:22;18.25;17.50;12.75
67376;PMS7003;54261;46.086;6.588;2024-03-08T04:40:24;12.00;9.00;6.00
67376;PMS7003;54261;46.086;6.588;2024-03-08T04:45:26;7.00;6.50;5.25
67376;PMS7003;54261;46.086;6.588;2024-03-08T04:50:29;7.00;6.00;5.25
67376;PMS7003;54261;46.086;6.588;2024-03-08T04:55:31;10.00;8.25;6.25
67376;PMS7003;54261;46.086;6.588;2024-03-08T05:00:32;11.75;11.75;9.00
67376;PMS7003;54261;46.086;6.588;2024-03-08T05:05:34;17.50;15.75;11.50
67376;PMS7003;54261;46.086;6.588;2024-03-08T05:10:38;7.25;5.75;0.50
67376;PMS7003;54261;46.086;6.588;2024-03-08T05:15:39;11.50;9.50;7.00
67376;PMS7003;54261;46.086;6.588;2024-03-08T05:20:41;16.75;11.00;8.00
67376;PMS7003;54261;46.086;6.588;2024-03-08T05:25:43;14.00;14.00;9.25
67376;PMS7003;54261;46.086;6.588;2024-03-08T05:30:45;16.25;13.25;9.25
67376;PMS7003;54261;46.086;6.588;2024-03-08T05:35:47;16.50;14.00;7.00
67376;PMS7003;54261;46.086;6.588;2024-03-08T05:40:49;13.50;12.00;8.75
67376;PMS7003;54261;46.086;6.588;2024-03-08T05:45:52;11.00;9.25;5.25
67376;PMS7003;54261;46.086;6.588;2024-03-08T05:50:54;15.75;15.25;11.00
67376;PMS7003;54261;46.086;6.588;2024-03-08T05:55:58;21.00;19.00;14.00
67376;PMS7003;54261;46.086;6.588;2024-03-08T06:01:01;20.75;19.50;12.75
67376;PMS7003;54261;46.086;6.588;2024-03-08T06:06:03;14.00;13.25;9.00
67376;PMS7003;54261;46.086;6.588;2024-03-08T06:11:05;8.75;8.75;7.25
67376;PMS7003;54261;46.086;6.588;2024-03-08T06:16:07;10.50;8.00;5.00
67376;PMS7003;54261;46.086;6.588;2024-03-08T06:21:09;11.25;9.75;6.75
67376;PMS7003;54261;46.086;6.588;2024-03-08T06:26:14;14.50;12.00;8.75
67376;PMS7003;54261;46.086;6.588;2024-03-08T06:31:15;3.50;2.00;1.00
67376;PMS7003;54261;46.086;6.588;2024-03-08T06:36:17;16.50;13.00;10.00
67376;PMS7003;54261;46.086;6.588;2024-03-08T06:41:25;12.25;12.00;7.25
67376;PMS7003;54261;46.086;6.588;2024-03-08T06:46:28;11.50;11.50;9.00
67376;PMS7003;54261;46.086;6.588;2024-03-08T06:51:30;10.75;10.75;6.50
67376;PMS7003;54261;46.086;6.588;2024-03-08T06:56:32;14.25;12.50;8.00
67376;PMS7003;54261;46.086;6.588;2024-03-08T07:01:34;14.50;13.00;8.75
67376;PMS7003;54261;46.086;6.588;2024-03-08T07:06:38;14.50;11.75;9.50
67376;PMS7003;54261;46.086;6.588;2024-03-08T07:11:42;18.75;14.75;9.75
67376;PMS7003;54261;46.086;6.588;2024-03-08T07:16:46;20.50;19.00;12.00
67376;PMS7003;54261;46.086;6.588;2024-03-08T07:21:48;25.75;22.00;14.50
67376;PMS7003;54261;46.086;6.588;2024-03-08T07:26:49;39.00;30.50;21.25
67376;PMS7003;54261;46.086;6.588;2024-03-08T07:31:53;40.75;32.50;21.50
67376;PMS7003;54261;46.086;6.588;2024-03-08T07:37:13;27.00;24.75;15.25
67376;PMS7003;54261;46.086;6.588;2024-03-08T07:42:15;40.75;28.00;18.00
67376;PMS7003;54261;46.086;6.588;2024-03-08T07:47:18;22.75;19.25;11.50
67376;PMS7003;54261;46.086;6.588;2024-03-08T07:52:24;31.50;25.25;17.00
67376;PMS7003;54261;46.086;6.588;2024-03-08T07:57:25;29.75;27.25;17.00
67376;PMS7003;54261;46.086;6.588;2024-03-08T08:02:28;33.75;28.75;17.50
67376;PMS7003;54261;46.086;6.588;2024-03-08T08:07:30;30.00;26.75;19.00
67376;PMS7003;54261;46.086;6.588;2024-03-08T08:12:32;33.50;32.50;21.25
67376;PMS7003;54261;46.086;6.588;2024-03-08T08:17:35;42.25;34.75;23.75
67376;PMS7003;54261;46.086;6.588;2024-03-08T08:22:38;22.75;22.75;14.25
67376;PMS7003;54261;46.086;6.588;2024-03-08T08:27:41;34.75;28.75;21.00
67376;PMS7003;54261;46.086;6.588;2024-03-08T08:32:46;27.00;25.75;19.75
67376;PMS7003;54261;46.086;6.588;2024-03-08T08:37:48;34.25;31.00;22.00
67376;PMS7003;54261;46.086;6.588;2024-03-08T08:42:51;37.00;36.00;24.50
67376;PMS7003;54261;46.086;6.588;2024-03-08T08:47:54;33.75;28.50;21.50
67376;PMS7003;54261;46.086;6.588;2024-03-08T08:52:56;34.00;29.50;20.25
67376;PMS7003;54261;46.086;6.588;2024-03-08T08:57:58;39.75;31.50;17.50
67376;PMS7003;54261;46.086;6.588;2024-03-08T09:03:00;31.75;29.00;19.75
67376;PMS7003;54261;46.086;6.588;2024-03-08T09:08:05;34.00;32.25;19.00
67376;PMS7003;54261;46.086;6.588;2024-03-08T09:13:07;37.75;32.25;22.75
67376;PMS7003;54261;46.086;6.588;2024-03-08T09:18:18;36.00;28.00;24.50
67376;PMS7003;54261;46.086;6.588;2024-03-08T09:23:21;34.25;31.75;22.75
67376;PMS7003;54261;46.086;6.588;2024-03-08T09:28:23;39.50;33.25;24.25
67376;PMS7003;54261;46.086;6.588;2024-03-08T09:33:25;34.00;29.25;19.00
67376;PMS7003;54261;46.086;6.588;2024-03-08T09:38:27;43.00;40.00;22.75
67376;PMS7003;54261;46.086;6.588;2024-03-08T09:43:29;36.00;33.75;24.00
67376;PMS7003;54261;46.086;6.588;2024-03-08T09:48:32;20.75;14.50;4.00
67376;PMS7003;54261;46.086;6.588;2024-03-08T09:53:34;36.00;31.50;21.75
67376;PMS7003;54261;46.086;6.588;2024-03-08T09:58:37;35.50;30.00;22.00
67376;PMS7003;54261;46.086;6.588;2024-03-08T10:03:52;34.00;29.50;21.25
67376;PMS7003;54261;46.086;6.588;2024-03-08T10:08:56;21.25;16.75;12.75
67376;PMS7003;54261;46.086;6.588;2024-03-08T10:13:59;39.00;32.75;21.50
67376;PMS7003;54261;46.086;6.588;2024-03-08T10:19:01;30.25;28.25;22.25
67376;PMS7003;54261;46.086;6.588;2024-03-08T10:24:05;26.75;24.50;17.75
67376;PMS7003;54261;46.086;6.588;2024-03-08T10:29:06;31.25;31.00;21.25
67376;PMS7003;54261;46.086;6.588;2024-03-08T10:34:09;30.25;27.50;19.25
67376;PMS7003;54261;46.086;6.588;2024-03-08T10:39:21;36.75;30.50;21.00
67376;PMS7003;54261;46.086;6.588;2024-03-08T10:49:32;31.00;28.50;21.25
67376;PMS7003;54261;46.086;6.588;2024-03-08T10:54:38;22.25;21.25;13.25
67376;PMS7003;54261;46.086;6.588;2024-03-08T10:59:47;27.75;22.00;14.50
67376;PMS7003;54261;46.086;6.588;2024-03-08T11:04:51;32.00;31.25;21.00
67376;PMS7003;54261;46.086;6.588;2024-03-08T11:09:54;24.25;19.25;14.50
67376;PMS7003;54261;46.086;6.588;2024-03-08T11:15:16;32.25;29.00;21.25
67376;PMS7003;54261;46.086;6.588;2024-03-08T11:20:23;25.75;22.25;14.00
67376;PMS7003;54261;46.086;6.588;2024-03-08T11:25:32;30.25;23.50;16.50
67376;PMS7003;54261;46.086;6.588;2024-03-08T11:30:38;41.50;36.25;21.50
67376;PMS7003;54261;46.086;6.588;2024-03-08T11:35:40;30.75;28.50;21.50
67376;PMS7003;54261;46.086;6.588;2024-03-08T11:40:45;33.75;29.75;20.25
67376;PMS7003;54261;46.086;6.588;2024-03-08T11:45:48;20.50;20.50;16.00
67376;PMS7003;54261;46.086;6.588;2024-03-08T11:50:58;30.00;29.00;18.00
67376;PMS7003;54261;46.086;6.588;2024-03-08T11:56:06;29.50;20.75;14.00
67376;PMS7003;54261;46.086;6.588;2024-03-08T12:01:09;31.00;27.00;19.00
67376;PMS7003;54261;46.086;6.588;2024-03-08T12:06:14;32.00;27.00;17.75
67376;PMS7003;54261;46.086;6.588;2024-03-08T12:11:19;29.00;26.25;21.75
67376;PMS7003;54261;46.086;6.588;2024-03-08T12:16:25;32.50;28.25;19.25
67376;PMS7003;54261;46.086;6.588;2024-03-08T12:21:28;33.50;30.00;20.00
67376;PMS7003;54261;46.086;6.588;2024-03-08T12:26:37;29.00;27.25;17.25
67376;PMS7003;54261;46.086;6.588;2024-03-08T12:31:41;25.00;24.50;17.00
67376;PMS7003;54261;46.086;6.588;2024-03-08T12:36:47;30.50;28.75;17.25
67376;PMS7003;54261;46.086;6.588;2024-03-08T12:41:52;25.75;23.75;16.25
67376;PMS7003;54261;46.086;6.588;2024-03-08T12:46:54;27.25;27.00;18.50
67376;PMS7003;54261;46.086;6.588;2024-03-08T12:51:56;23.50;21.00;14.50
67376;PMS7003;54261;46.086;6.588;2024-03-08T12:56:58;34.25;27.25;18.50
67376;PMS7003;54261;46.086;6.588;2024-03-08T13:02:00;31.00;27.00;17.50
67376;PMS7003;54261;46.086;6.588;2024-03-08T13:07:02;28.00;25.00;17.50
67376;PMS7003;54261;46.086;6.588;2024-03-08T13:12:04;29.50;28.00;21.00
67376;PMS7003;54261;46.086;6.588;2024-03-08T13:17:08;25.75;22.75;14.00
67376;PMS7003;54261;46.086;6.588;2024-03-08T13:23:41;29.25;28.25;21.00
67376;PMS7003;54261;46.086;6.588;2024-03-08T13:28:47;35.50;31.75;23.50
67376;PMS7003;54261;46.086;6.588;2024-03-08T13:33:53;34.50;30.25;20.25
67376;PMS7003;54261;46.086;6.588;2024-03-08T13:38:59;26.75;20.00;12.50
67376;PMS7003;54261;46.086;6.588;2024-03-08T13:44:01;35.50;33.00;21.50
67376;PMS7003;54261;46.086;6.588;2024-03-08T13:49:04;30.75;30.50;19.75
67376;PMS7003;54261;46.086;6.588;2024-03-08T13:54:09;35.00;33.50;21.25
67376;PMS7003;54261;46.086;6.588;2024-03-08T13:59:12;35.50;34.25;20.00
67376;PMS7003;54261;46.086;6.588;2024-03-08T14:04:14;36.75;35.25;24.50
67376;PMS7003;54261;46.086;6.588;2024-03-08T14:09:18;34.75;31.25;22.25
67376;PMS7003;54261;46.086;6.588;2024-03-08T14:14:21;36.25;34.50;23.50
67376;PMS7003;54261;46.086;6.588;2024-03-08T14:19:24;34.50;28.50;20.00
67376;PMS7003;54261;46.086;6.588;2024-03-08T14:24:27;36.00;31.00;20.75
67376;PMS7003;54261;46.086;6.588;2024-03-08T14:29:29;32.00;25.75;16.50
67376;PMS7003;54261;46.086;6.588;2024-03-08T14:34:34;36.75;36.75;22.50
67376;PMS7003;54261;46.086;6.588;2024-03-08T14:39:36;39.50;31.00;22.50
67376;PMS7003;54261;46.086;6.588;2024-03-08T14:44:38;31.00;28.50;19.25
67376;PMS7003;54261;46.086;6.588;2024-03-08T14:49:40;29.50;28.00;18.50
67376;PMS7003;54261;46.086;6.588;2024-03-08T14:54:42;31.25;27.75;17.00
67376;PMS7003;54261;46.086;6.588;2024-03-08T14:59:44;31.50;22.00;20.00
67376;PMS7003;54261;46.086;6.588;2024-03-08T15:04:47;34.50;32.00;22.50
67376;PMS7003;54261;46.086;6.588;2024-03-08T15:09:59;28.75;25.75;17.25
67376;PMS7003;54261;46.086;6.588;2024-03-08T15:15:01;38.00;36.75;23.50
67376;PMS7003;54261;46.086;6.588;2024-03-08T15:20:03;35.75;31.25;21.75
67376;PMS7003;54261;46.086;6.588;2024-03-08T15:25:05;39.75;35.25;24.00
67376;PMS7003;54261;46.086;6.588;2024-03-08T15:30:09;33.00;31.75;21.25
67376;PMS7003;54261;46.086;6.588;2024-03-08T15:35:14;32.25;28.00;18.25
67376;PMS7003;54261;46.086;6.588;2024-03-08T15:40:18;39.00;30.50;21.00
67376;PMS7003;54261;46.086;6.588;2024-03-08T15:45:23;38.00;35.00;23.75
67376;PMS7003;54261;46.086;6.588;2024-03-08T15:50:26;35.00;32.75;20.25
67376;PMS7003;54261;46.086;6.588;2024-03-08T15:55:27;32.50;30.50;21.50
67376;PMS7003;54261;46.086;6.588;2024-03-08T16:00:31;40.50;36.75;25.25
67376;PMS7003;54261;46.086;6.588;2024-03-08T16:05:38;54.50;40.75;28.00
67376;PMS7003;54261;46.086;6.588;2024-03-08T16:10:46;44.75;38.00;21.75
67376;PMS7003;54261;46.086;6.588;2024-03-08T16:15:55;35.50;32.50;24.75
67376;PMS7003;54261;46.086;6.588;2024-03-08T16:20:58;43.00;36.00;21.00
67376;PMS7003;54261;46.086;6.588;2024-03-08T16:26:00;39.50;31.00;22.00
67376;PMS7003;54261;46.086;6.588;2024-03-08T16:31:02;36.75;33.50;18.00
67376;PMS7003;54261;46.086;6.588;2024-03-08T16:36:06;34.25;33.25;23.00
67376;PMS7003;54261;46.086;6.588;2024-03-08T16:41:08;32.00;29.25;19.25
67376;PMS7003;54261;46.086;6.588;2024-03-08T16:46:11;39.00;31.50;21.25
67376;PMS7003;54261;46.086;6.588;2024-03-08T16:51:13;42.25;34.50;22.00
67376;PMS7003;54261;46.086;6.588;2024-03-08T16:56:15;31.50;27.00;17.50
67376;PMS7003;54261;46.086;6.588;2024-03-08T17:01:17;45.00;37.25;26.50
67376;PMS7003;54261;46.086;6.588;2024-03-08T17:06:18;41.00;37.50;25.00
67376;PMS7003;54261;46.086;6.588;2024-03-08T17:11:22;42.25;35.50;20.25
67376;PMS7003;54261;46.086;6.588;2024-03-08T17:16:24;38.00;35.75;23.25
67376;PMS7003;54261;46.086;6.588;2024-03-08T17:21:27;39.50;33.00;22.00
67376;PMS7003;54261;46.086;6.588;2024-03-08T17:26:29;35.75;31.75;21.50
67376;PMS7003;54261;46.086;6.588;2024-03-08T17:31:31;34.75;32.00;18.75
67376;PMS7003;54261;46.086;6.588;2024-03-08T17:36:34;37.75;34.50;23.75
67376;PMS7003;54261;46.086;6.588;2024-03-08T17:41:36;41.50;34.50;21.75
67376;PMS7003;54261;46.086;6.588;2024-03-08T17:46:38;39.00;33.75;21.75
67376;PMS7003;54261;46.086;6.588;2024-03-08T17:51:43;41.00;33.50;22.00
67376;PMS7003;54261;46.086;6.588;2024-03-08T17:56:46;68.75;51.25;29.50
67376;PMS7003;54261;46.086;6.588;2024-03-08T18:01:48;40.25;35.25;22.75
67376;PMS7003;54261;46.086;6.588;2024-03-08T18:06:50;38.00;31.75;22.00
67376;PMS7003;54261;46.086;6.588;2024-03-08T18:11:54;35.50;32.00;21.75
67376;PMS7003;54261;46.086;6.588;2024-03-08T18:16:58;37.50;35.00;22.00
67376;PMS7003;54261;46.086;6.588;2024-03-08T18:22:00;37.00;33.00;23.50
67376;PMS7003;54261;46.086;6.588;2024-03-08T18:27:03;40.50;37.50;26.25
67376;PMS7003;54261;46.086;6.588;2024-03-08T18:32:05;54.50;45.00;29.00
67376;PMS7003;54261;46.086;6.588;2024-03-08T18:37:09;39.00;37.00;25.00
67376;PMS7003;54261;46.086;6.588;2024-03-08T18:42:14;57.25;48.00;32.00
67376;PMS7003;54261;46.086;6.588;2024-03-08T18:47:16;58.75;48.75;31.00
67376;PMS7003;54261;46.086;6.588;2024-03-08T18:52:17;43.50;39.50;27.00
67376;PMS7003;54261;46.086;6.588;2024-03-08T18:57:20;40.00;36.75;24.75
67376;PMS7003;54261;46.086;6.588;2024-03-08T19:02:22;47.50;39.75;24.00
67376;PMS7003;54261;46.086;6.588;2024-03-08T19:07:24;51.00;45.00;28.00
67376;PMS7003;54261;46.086;6.588;2024-03-08T19:12:26;43.75;39.25;25.25
67376;PMS7003;54261;46.086;6.588;2024-03-08T19:17:33;50.50;42.25;24.50
67376;PMS7003;54261;46.086;6.588;2024-03-08T19:22:35;48.00;38.00;27.50
67376;PMS7003;54261;46.086;6.588;2024-03-08T19:27:37;32.75;31.75;18.50
67376;PMS7003;54261;46.086;6.588;2024-03-08T19:32:40;53.75;43.50;29.00
67376;PMS7003;54261;46.086;6.588;2024-03-08T19:37:44;38.50;35.75;23.75
67376;PMS7003;54261;46.086;6.588;2024-03-08T19:42:47;36.00;31.25;23.25
67376;PMS7003;54261;46.086;6.588;2024-03-08T19:47:54;40.50;36.50;25.00
67376;PMS7003;54261;46.086;6.588;2024-03-08T19:53:00;40.25;36.50;24.50
67376;PMS7003;54261;46.086;6.588;2024-03-08T19:58:08;37.75;35.25;24.25
67376;PMS7003;54261;46.086;6.588;2024-03-08T20:03:11;37.50;36.25;24.25
67376;PMS7003;54261;46.086;6.588;2024-03-08T20:08:17;47.00;41.50;28.00
67376;PMS7003;54261;46.086;6.588;2024-03-08T20:13:20;41.00;34.75;21.75
67376;PMS7003;54261;46.086;6.588;2024-03-08T20:18:22;37.25;35.50;24.25
67376;PMS7003;54261;46.086;6.588;2024-03-08T20:23:29;34.00;32.50;21.75
67376;PMS7003;54261;46.086;6.588;2024-03-08T20:28:31;39.50;33.00;21.25
67376;PMS7003;54261;46.086;6.588;2024-03-08T20:33:34;32.50;26.75;18.50
67376;PMS7003;54261;46.086;6.588;2024-03-08T20:38:38;38.25;34.25;22.00
67376;PMS7003;54261;46.086;6.588;2024-03-08T20:43:42;43.50;38.25;24.50
67376;PMS7003;54261;46.086;6.588;2024-03-08T20:48:44;36.25;34.00;24.75
67376;PMS7003;54261;46.086;6.588;2024-03-08T20:53:47;38.00;32.75;19.50
67376;PMS7003;54261;46.086;6.588;2024-03-08T20:58:49;36.75;33.25;19.00
67376;PMS7003;54261;46.086;6.588;2024-03-08T21:03:51;35.75;28.25;19.00
67376;PMS7003;54261;46.086;6.588;2024-03-08T21:08:53;38.25;32.50;22.50
67376;PMS7003;54261;46.086;6.588;2024-03-08T21:13:57;39.25;33.75;23.25
67376;PMS7003;54261;46.086;6.588;2024-03-08T21:18:59;48.50;36.75;23.75
67376;PMS7003;54261;46.086;6.588;2024-03-08T21:24:01;43.75;39.25;26.25
67376;PMS7003;54261;46.086;6.588;2024-03-08T21:29:03;34.25;30.50;23.00
67376;PMS7003;54261;46.086;6.588;2024-03-08T21:34:05;28.75;25.00;16.25
67376;PMS7003;54261;46.086;6.588;2024-03-08T21:39:07;40.00;37.50;25.25
67376;PMS7003;54261;46.086;6.588;2024-03-08T21:44:12;23.00;22.50;16.25
67376;PMS7003;54261;46.086;6.588;2024-03-08T21:49:14;29.50;23.25;17.00
67376;PMS7003;54261;46.086;6.588;2024-03-08T21:54:17;47.25;42.00;27.25
67376;PMS7003;54261;46.086;6.588;2024-03-08T21:59:19;40.00;35.25;25.00
67376;PMS7003;54261;46.086;6.588;2024-03-08T22:04:21;45.00;40.50;29.25
67376;PMS7003;54261;46.086;6.588;2024-03-08T22:09:23;36.75;30.00;20.50
67376;PMS7003;54261;46.086;6.588;2024-03-08T22:14:25;29.00;27.00;19.75
67376;PMS7003;54261;46.086;6.588;2024-03-08T22:19:27;21.75;19.75;14.00
67376;PMS7003;54261;46.086;6.588;2024-03-08T22:24:29;28.50;26.50;18.50
67376;PMS7003;54261;46.086;6.588;2024-03-08T22:29:31;20.25;17.50;11.75
67376;PMS7003;54261;46.086;6.588;2024-03-08T22:34:33;19.75;18.25;10.25
67376;PMS7003;54261;46.086;6.588;2024-03-08T22:39:35;28.00;24.25;13.00
67376;PMS7003;54261;46.086;6.588;2024-03-08T22:44:37;21.00;17.00;11.50
67376;PMS7003;54261;46.086;6.588;2024-03-08T22:49:40;22.25;18.25;11.25
67376;PMS7003;54261;46.086;6.588;2024-03-08T22:54:42;26.25;24.75;17.75
67376;PMS7003;54261;46.086;6.588;2024-03-08T22:59:44;19.75;18.50;13.25
67376;PMS7003;54261;46.086;6.588;2024-03-08T23:04:48;31.00;24.25;16.50
67376;PMS7003;54261;46.086;6.588;2024-03-08T23:09:50;18.25;15.75;10.00
67376;PMS7003;54261;46.086;6.588;2024-03-08T23:14:52;22.50;20.75;13.50
67376;PMS7003;54261;46.086;6.588;2024-03-08T23:19:54;17.50;17.50;12.75
67376;PMS7003;54261;46.086;6.588;2024-03-08T23:24:58;18.75;18.50;13.00
67376;PMS7003;54261;46.086;6.588;2024-03-08T23:29:59;26.50;23.75;19.00
67376;PMS7003;54261;46.086;6.588;2024-03-08T23:35:01;28.75;28.75;20.75
67376;PMS7003;54261;46.086;6.588;2024-03-08T23:40:07;20.50;20.50;14.50
67376;PMS7003;54261;46.086;6.588;2024-03-08T23:45:12;17.25;17.00;11.50
67376;PMS7003;54261;46.086;6.588;2024-03-08T23:50:22;22.25;22.00;14.50
67376;PMS7003;54261;46.086;6.588;2024-03-08T23:55:28;28.25;24.25;17.50
